Latest Coastal Weather Observations for Moorabbin Airport

IDV60701

Issued at 7:53 pm EDT Friday 6 March 2015 (issued every 10 minutes, with the page automatically refreshed every 10 minutes)

About coastal observations | Map of coastal stations | Coastal observations for VIC | Marine services | Other Formats
Station Details ID: 086077 Name: MOORABBIN AIRPORT Lat: -37.98 Lon: 145.10 Height: 12.1 m
Data from the previous 72 hours. | See also: Recent months at Moorabbin Airport
Date/Time
EDT
Temp

°C
Wind Pressure Rain
since 9am
mm
Weather Cloud Vis
km
Sea
Height
m
Swell
Dir
 
Speed
knots
Gust
knots
hPa Trend Height
m
Period
s
Dir
06/07:30pm 17.5 SSW 11 16 1011.4 - 0.2 - Partly cloudy 10 - - - -
06/07:00pm 18.0 SSW 13 18 1011.5 - 0.2 - Partly cloudy 10 - - - -
06/06:30pm 18.3 SSW 13 17 1011.2 - 0.0 - Partly cloudy 10 - - - -
06/06:00pm 18.3 SSW 15 19 1011.1 - 0.0 - Cloudy 10 - - - -
06/05:30pm 18.8 SSW 15 19 1010.8 - 0.0 - Partly cloudy 10 - - - -
06/05:00pm 18.6 SSW 15 20 1010.7 - 0.0 - Partly cloudy 10 - - - -
06/04:31pm 19.2 SW 15 25 1010.8 - 0.0 - Partly cloudy 10 - - - -
06/04:30pm 19.6 SSW 16 22 1010.8 - 0.0 - Partly cloudy 10 - - - -
06/04:00pm 18.9 SW 15 20 1010.8 - 0.0 - Partly cloudy 10 - - - -
06/03:30pm 19.1 SW 16 21 1011.0 - 0.0 - Partly cloudy 10 - - - -
06/03:00pm 19.2 SW 17 25 1011.1 - 0.0 - Cloudy 10 - - - -
06/02:30pm 19.3 SW 16 23 1011.1 - 0.0 - Partly cloudy 10 - - - -
06/02:00pm 19.5 SW 16 21 1011.0 - 0.0 - Partly cloudy 10 - - - -
06/01:30pm 19.0 SW 16 22 1011.1 - 0.0 - Partly cloudy 10 - - - -
06/01:15pm 19.4 SW 15 25 1011.1 - 0.0 - Partly cloudy 10 - - - -
06/01:03pm 18.5 SW 13 19 1011.0 - 0.0 - Partly cloudy 10 - - - -
06/01:00pm 18.2 SW 14 21 1011.0 - 0.0 - Partly cloudy 10 - - - -
06/12:32pm 17.1 WSW 13 21 1011.1 - 0.0 - Partly cloudy 6 - - - -
06/12:30pm 17.2 WSW 13 22 1011.0 - 0.0 - Partly cloudy 6 - - - -
06/12:06pm 18.9 W 13 20 1010.9 - 0.0 - Partly cloudy 10 - - - -
06/12:00pm 18.7 W 13 23 1010.9 - 0.0 - Cloudy 10 - - - -
06/11:30am 18.6 W 14 19 1011.1 - 0.0 - Partly cloudy 10 - - - -
06/11:00am 18.0 W 13 20 1011.0 - 0.0 - Partly cloudy 10 - - - -
06/10:36am 17.3 W 16 24 1010.9 - 0.0 - Partly cloudy 10 - - - -
06/10:30am 17.2 WSW 15 23 1010.8 - 0.0 - Cloudy 10 - - - -
06/10:05am 16.9 W 15 25 1010.6 - 0.0 - Cloudy 10 - - - -
06/10:00am 16.9 W 16 25 1010.6 - 0.0 - Cloudy 10 - - - -
06/09:55am 16.7 W 15 25 1010.5 - 0.0 - Partly cloudy 10 - - - -
06/09:30am 16.5 W 17 25 1010.5 - 0.0 - Cloudy 10 - - - -
06/09:00am 16.3 W 15 23 1010.4 - 0.2 - Cloudy 10 - - - -
06/08:30am 15.9 W 15 24 1010.2 - 0.2 - Partly cloudy 10 - - - -
06/08:00am 15.6 W 13 21 1010.2 - 0.2 - Cloudy 10 - - - -
06/07:30am 15.4 W 14 22 1010.2 - 0.2 - Cloudy 10 - - - -
06/07:00am 15.5 W 14 23 1009.9 - 0.2 - Cloudy 10 - - - -
06/06:30am 15.2 W 13 22 1009.6 - 0.2 - Partly cloudy 10 - - - -
06/06:14am 15.1 W 15 25 1009.8 - 0.2 - Partly cloudy 10 - - - -
06/06:00am 15.1 W 13 21 1010.1 - 0.2 - Cloudy 10 - - - -
06/05:30am 15.1 W 16 26 1010.2 - 0.2 - Partly cloudy 10 - - - -
06/05:03am 14.9 WNW 15 25 1010.3 - 0.2 - Partly cloudy 10 - - - -
06/05:00am 14.9 WNW 14 25 1010.3 - 0.2 - Partly cloudy 10 - - - -
06/04:45am 14.8 WNW 15 26 1010.5 - 0.2 - Partly cloudy 10 - - - -
06/04:30am 14.8 W 11 18 1010.8 - 0.2 - Cloudy 10 - - - -
06/04:00am 14.7 WNW 13 21 1011.2 - 0.2 - Partly cloudy 10 - - - -
06/03:47am 14.8 WNW 15 25 1011.5 - 0.2 - Partly cloudy 10 - - - -
06/03:30am 14.9 WNW 15 23 1011.7 - 0.2 - Cloudy 10 - - - -
06/03:12am 14.7 WNW 15 25 1012.0 - 0.2 - Partly cloudy 10 - - - -
06/03:00am 14.8 W 15 24 1012.2 - 0.2 - Cloudy 10 - - - -
06/02:50am 14.7 W 15 25 1012.3 - 0.2 - Partly cloudy 10 - - - -
06/02:30am 14.8 W 13 22 1012.5 - 0.2 - Partly cloudy 10 - - - -
06/02:00am 14.8 W 16 24 1013.0 - 0.2 - Cloudy 10 - - - -
06/01:30am 14.6 WNW 13 26 1013.1 - 0.2 - Partly cloudy 10 - - - -
06/01:00am 14.6 WNW 12 20 1013.3 - 0.2 - Partly cloudy 10 - - - -
06/12:30am 14.7 W 15 26 1013.7 - 0.2 - Partly cloudy 10 - - - -
06/12:29am 14.8 W 15 26 1013.7 - 0.2 - Partly cloudy 10 - - - -
06/12:00am 15.0 WNW 14 22 1013.8 - 0.2 - Mostly clear 16 - - - -
 
Date/Time
EDT
Temp

°C
Wind Pressure Rain
since 9am
mm
Weather Cloud Vis
km
Sea
Height
m
Swell
Dir
 
Speed
knots
Gust
knots
hPa Trend Height
m
Period
s
Dir
05/11:30pm 15.1 W 13 21 1014.0 - 0.2 - Partly cloudy 10 - - - -
05/11:00pm 15.2 W 15 26 1014.3 - 0.2 - Partly cloudy 10 - - - -
05/10:53pm 15.2 W 15 26 1014.4 - 0.2 - Partly cloudy 10 - - - -
05/10:30pm 15.2 W 13 20 1014.5 - 0.2 - Partly cloudy 10 - - - -
05/10:00pm 15.6 W 15 23 1014.8 - 0.2 - - 10 - - - -
05/09:30pm 15.7 W 15 21 1014.8 - 0.2 - Partly cloudy 10 - - - -
05/09:00pm 16.3 W 15 23 1014.7 - 0.2 - Cloudy 10 - - - -
05/08:30pm 16.5 W 12 19 1014.6 - 0.2 - Partly cloudy 10 - - - -
05/08:00pm 16.7 WSW 13 19 1014.7 - 0.2 - Partly cloudy 10 - - - -
05/07:30pm 17.1 WSW 13 19 1014.8 - 0.2 - Partly cloudy 10 - - - -
05/07:00pm 17.0 SW 10 14 1015.1 - 0.2 - Partly cloudy 10 - - - -
05/06:30pm 16.9 SW 13 19 1015.1 - 0.2 - Partly cloudy 10 - - - -
05/06:00pm 17.2 SW 13 21 1015.4 - 0.2 - Partly cloudy 10 - - - -
05/05:30pm 17.6 SW 14 21 1015.6 - 0.2 - - 10 - - - -
05/05:00pm 17.9 SW 14 21 1015.8 - 0.2 - Partly cloudy 10 - - - -
05/04:30pm 17.7 SSW 14 20 1016.0 - 0.2 - Partly cloudy 10 - - - -
05/04:00pm 18.3 SW 13 19 1016.0 - 0.2 - - 10 - - - -
05/03:30pm 17.5 SSW 15 21 1016.7 - 0.2 - Partly cloudy 10 - - - -
05/03:00pm 17.6 SSW 16 21 1016.9 - 0.2 - Mostly clear 10 - - - -
05/02:30pm 17.6 SW 15 22 1016.8 - 0.2 - Partly cloudy 10 - - - -
05/02:09pm 17.2 SW 15 25 1017.1 - 0.2 - Partly cloudy 10 - - - -
05/02:00pm 17.0 SW 14 22 1017.2 - 0.2 - Partly cloudy 10 - - - -
05/01:30pm 17.4 SW 17 23 1017.4 - 0.2 - - 10 - - - -
05/01:00pm 17.6 SW 17 25 1017.8 - 0.2 - Partly cloudy 10 - - - -
05/12:30pm 15.9 SSW 16 22 1017.8 - 0.2 - Partly cloudy 10 - - - -
05/12:00pm 17.2 SW 17 25 1017.8 - 0.2 - Partly cloudy 10 - - - -
05/11:34am 16.0 SW 17 27 1017.8 - 0.2 - Partly cloudy 10 - - - -
05/11:30am 16.7 SW 18 25 1017.7 - 0.2 - Partly cloudy 10 - - - -
05/11:00am 16.8 SW 17 27 1017.5 - 0.2 - Partly cloudy 10 - - - -
05/10:32am 14.7 WSW 15 25 1017.2 - 0.0 - Partly cloudy 10 - - - -
05/10:30am 15.2 SW 15 25 1017.2 - 0.0 - Partly cloudy 10 - - - -
05/10:26am 15.4 WSW 15 25 1017.1 - 0.0 - Partly cloudy 10 - - - -
05/10:00am 14.2 SW 13 19 1017.0 - 0.0 - Partly cloudy 10 - - - -
05/09:30am 14.2 SW 16 31 1016.7 - 0.0 - Partly cloudy 10 - - - -
05/09:02am 13.5 WSW 18 28 1016.6 - 0.0 - Partly cloudy 10 - - - -
05/09:00am 14.1 WSW 17 25 1016.3 - 1.0 - Partly cloudy 10 - - - -
05/08:34am 14.3 SW 15 29 1015.8 - - - Partly cloudy 10 - - - -
05/08:30am 14.0 SW 13 22 1015.7 - - - Partly cloudy 10 - - - -
05/08:08am 13.7 WSW 17 30 1015.6 - - - Partly cloudy 10 - - - -
05/08:00am 13.5 WSW 15 22 1015.2 - - - Partly cloudy 10 - - - -
05/07:30am 13.1 WSW 16 26 1014.7 - - - Partly cloudy 10 - - - -
05/07:27am 13.3 WSW 15 26 1014.7 - - - Partly cloudy 10 - - - -
05/07:00am 13.1 WSW 14 23 1014.3 - - - Partly cloudy 10 - - - -
05/06:30am 12.5 WSW 15 23 1014.4 - - - Partly cloudy 10 - - - -
05/06:02am 13.7 WSW 16 26 1013.6 - - - Partly cloudy 10 - - - -
05/06:00am 13.8 WSW 16 23 1013.5 - - - Mostly cloudy 10 - - - -
05/05:30am 13.9 WSW 17 27 1013.3 - - - Partly cloudy 10 - - - -
05/05:00am 14.4 WSW 19 35 1012.7 - - - Partly cloudy 10 - - - -
05/04:30am 14.8 WSW 18 29 1012.1 - - - Partly cloudy 10 - - - -
05/04:00am 15.0 WSW 20 40 1011.5 - - - Partly cloudy 10 - - - -
05/03:30am 15.5 WSW 19 31 1010.6 - - - Partly cloudy 10 - - - -
05/03:06am 15.4 W 16 27 1010.0 - - - Partly cloudy 10 - - - -
05/03:00am 15.7 W 16 26 1009.7 - 1.0 Recent precip. Cloudy 10 - - - -
05/02:44am 15.4 W 21 34 1009.8 - - - Partly cloudy 4 - - - -
05/02:30am 17.1 W 18 32 1009.4 - - - Partly cloudy 10 - - - -
05/02:00am 17.7 W 17 30 1009.4 - - - Partly cloudy 10 - - - -
05/01:30am 18.1 W 19 33 1009.4 - - - Partly cloudy 10 - - - -
05/01:22am 18.4 W 17 30 1009.4 - - - Partly cloudy 10 - - - -
05/01:00am 18.5 W 13 21 1009.4 - - - Partly cloudy 10 - - - -
05/12:30am 19.0 W 17 28 1009.4 - - - Partly cloudy 10 - - - -
05/12:04am 19.9 WNW 15 26 1009.1 - - - Partly cloudy 10 - - - -
05/12:00am 19.9 WNW 13 23 1009.1 - - - Partly cloudy 10 - - - -
 
Date/Time
EDT
Temp

°C
Wind Pressure Rain
since 9am
mm
Weather Cloud Vis
km
Sea
Height
m
Swell
Dir
 
Speed
knots
Gust
knots
hPa Trend Height
m
Period
s
Dir
04/11:30pm 19.6 W 16 26 1008.8 - - - - 10 - - - -
04/11:04pm 20.1 W 15 27 1008.9 - - - - 10 - - - -
04/11:00pm 20.0 W 12 21 1008.9 - - - - 10 - - - -
04/10:30pm 20.3 W 13 21 1009.3 - - - - 10 - - - -
04/10:00pm 20.4 W 10 15 1009.4 - - - - 10 - - - -
04/09:30pm 20.8 W 8 13 1009.3 - - - - 10 - - - -
04/09:00pm 21.0 W 10 15 1009.1 - 0.0 - - 10 - - - -
04/08:30pm 21.3 W 8 14 1009.0 - - - - 10 - - - -
04/08:00pm 21.5 WSW 10 16 1009.2 - - - - 10 - - - -
04/07:30pm 21.8 WSW 12 17 1009.2 - - - Partly cloudy 10 - - - -
04/07:00pm 22.4 SW 12 17 1009.7 - - - Partly cloudy 10 - - - -
04/06:30pm 21.9 SW 10 14 1009.9 - - - - 10 - - - -
04/06:00pm 22.4 WSW 10 16 1010.1 - - - - 10 - - - -
04/05:30pm 21.9 SW 10 13 1010.3 - - - - 10 - - - -
04/05:00pm 22.2 SW 7 11 1010.6 - - - - 10 - - - -
04/04:30pm 22.1 SW 8 13 1010.9 - - - - 10 - - - -
04/04:00pm 22.2 SW 8 13 1011.2 - - - - 10 - - - -
04/03:30pm 21.9 WSW 8 14 1011.6 - - - - 10 - - - -
04/03:00pm 21.6 SW 10 14 1012.3 - 0.0 - - 10 - - - -
04/02:30pm 21.1 W 9 14 1012.7 - - - - 10 - - - -
04/02:00pm 20.6 W 8 12 1013.2 - - - Partly cloudy 10 - - - -
04/01:30pm 19.3 WSW 9 14 1013.6 - - - Partly cloudy 10 - - - -
04/01:00pm 19.6 W 9 15 1014.0 - - - Partly cloudy 10 - - - -
04/12:30pm 19.8 - - - 1014.5 - - - - - - - - -
04/12:00pm 19.4 WSW 9 13 1015.2 - 0.0 - - 10 - - - -
04/11:30am 18.3 WSW 11 17 1015.5 - 0.0 - - 10 - - - -
04/11:00am 17.3 W 10 15 1015.6 - 0.0 - - 10 - - - -
04/10:30am 18.4 W 11 15 1015.4 - 0.0 - - 10 - - - -
04/10:00am 17.6 W 11 14 1015.4 - 0.0 - - 10 - - - -
04/09:30am 17.4 WNW 10 13 1015.3 - 0.0 - - 10 - - - -
04/09:00am 17.3 WNW 9 13 1015.4 - 0.0 - - 10 - - - -
04/08:30am 16.8 WNW 8 12 1015.2 - 0.0 - - 10 - - - -
04/08:00am 16.3 W 6 9 1015.0 - 0.0 - - 10 - - - -
04/07:30am 15.9 W 7 11 1014.7 - 0.0 - - 10 - - - -
04/07:00am 16.5 W 6 7 1014.5 - 0.0 - - 10 - - - -
04/06:30am 16.5 WNW 4 7 1014.4 - 0.0 - - 10 - - - -
04/06:00am 16.6 W 7 10 1014.5 - 0.0 - - 10 - - - -
04/05:30am 16.6 W 5 9 1014.4 - 0.0 - - 10 - - - -
04/05:00am 16.8 WSW 7 10 1014.6 - 0.0 - - 10 - - - -
04/04:30am 16.1 N 3 4 1014.6 - 0.0 - - 10 - - - -
04/04:00am 16.1 NNE 3 4 1014.6 - 0.0 - - 10 - - - -
04/03:30am 16.0 NNE 4 5 1014.8 - 0.0 - - 10 - - - -
04/03:00am 16.0 ESE 3 4 1015.1 - 0.0 - - 10 - - - -
04/02:30am 15.8 E 3 4 1015.4 - 0.0 - - 10 - - - -
04/02:00am 15.3 E 4 5 1015.6 - 0.0 - - 10 - - - -
04/01:30am 14.8 E 3 4 1015.8 - 0.0 - - 10 - - - -
04/01:00am 14.8 CALM 0 0 1016.0 - 0.0 - - 10 - - - -
04/12:30am 13.9 SE 3 4 1016.2 - 0.0 - - 10 - - - -
04/12:00am 14.3 E 2 4 1016.4 - 0.0 - - 10 - - - -
 
Date/Time
EDT
Temp

°C
Wind Pressure Rain
since 9am
mm
Weather Cloud Vis
km
Sea
Height
m
Swell
Dir
 
Speed
knots
Gust
knots
hPa Trend Height
m
Period
s
Dir
03/11:30pm 15.1 ESE 4 4 1016.6 - 0.0 - - 10 - - - -
03/11:00pm 15.0 ESE 5 6 1016.7 - 0.0 - - 10 - - - -
03/10:30pm 15.7 SSE 5 6 1016.8 - 0.0 - - 10 - - - -
03/10:00pm 16.5 SSE 8 10 1016.7 - 0.0 - - 10 - - - -
03/09:30pm 16.9 SSE 9 12 1016.5 - 0.0 - - 10 - - - -
03/09:00pm 17.7 SSE 10 13 1016.2 - 0.0 - - 10 - - - -
03/08:30pm 18.4 SSE 9 12 1015.7 - 0.0 - - 10 - - - -
03/08:00pm 19.1 SSE 7 9 1015.3 - 0.0 - - 10 - - - -

Other Formats:

Comma delimited format used in spreadsheet applications
http://www.bom.gov.au/fwo/IDV60701/IDV60701.94870.axf

JavaScript Object Notation format (JSON) in row-major order
http://www.bom.gov.au/fwo/IDV60701/IDV60701.94870.json